createdAt,value
2017-12-23T00:02:14.350Z,97.47
2017-12-23T00:04:42.366Z,96.50
2017-12-23T00:07:10.518Z,97.93
2017-12-23T00:09:38.575Z,99.27
2017-12-23T00:12:06.582Z,99.00
2017-12-23T00:14:34.771Z,102.67
2017-12-23T00:17:03.542Z,97.33
2017-12-23T00:19:32.328Z,100.13
2017-12-23T00:22:01.239Z,100.37
2017-12-23T00:24:29.262Z,96.40
2017-12-23T00:26:57.322Z,103.40
2017-12-23T00:29:25.441Z,104.67
2017-12-23T00:31:54.506Z,101.33
2017-12-23T00:34:33.198Z,103.97
2017-12-23T00:37:01.201Z,104.67
2017-12-23T00:39:29.246Z,104.03
2017-12-23T00:41:57.393Z,106.80
2017-12-23T00:44:26.175Z,101.97
2017-12-23T00:46:54.967Z,103.57
2017-12-23T00:49:23.850Z,100.10
2017-12-23T00:51:52.646Z,99.30
2017-12-23T00:54:21.410Z,97.50
2017-12-23T00:56:49.556Z,100.77
2017-12-23T00:59:17.603Z,101.63
2017-12-23T01:01:45.643Z,101.57
2017-12-23T01:04:13.775Z,101.13
2017-12-23T01:06:41.838Z,100.07
2017-12-23T01:09:09.912Z,101.57
2017-12-23T01:11:38.058Z,101.47
2017-12-23T01:14:06.844Z,105.97
2017-12-23T01:16:35.674Z,102.40
2017-12-23T01:19:03.851Z,101.37
2017-12-23T01:21:31.880Z,106.00
2017-12-23T01:23:59.885Z,104.80
2017-12-23T01:26:28.123Z,103.20
2017-12-23T01:28:56.196Z,101.13
2017-12-23T01:31:24.247Z,102.27
2017-12-23T01:33:52.559Z,100.27
2017-12-23T01:36:21.415Z,102.70
2017-12-23T01:38:49.431Z,100.23
2017-12-23T01:41:18.310Z,103.90
2017-12-23T01:43:46.327Z,98.63
2017-12-23T01:46:14.436Z,100.90
2017-12-23T01:48:42.575Z,99.33
2017-12-23T01:51:10.627Z,98.10
2017-12-23T01:53:39.427Z,100.17
2017-12-23T01:56:07.663Z,100.90
2017-12-23T01:58:35.686Z,102.40
2017-12-23T02:01:03.738Z,101.40
2017-12-23T02:03:32.623Z,102.23
2017-12-23T02:06:01.496Z,103.67
2017-12-23T02:08:29.519Z,104.47
2017-12-23T02:10:57.638Z,110.67
2017-12-23T02:13:25.663Z,104.60
2017-12-23T02:15:53.715Z,106.83
2017-12-23T02:18:22.691Z,100.43
2017-12-23T02:20:50.706Z,102.57
2017-12-23T02:23:18.718Z,102.77
2017-12-23T02:25:47.007Z,104.90
2017-12-23T02:28:15.060Z,103.20
2017-12-23T02:30:43.107Z,100.43
2017-12-23T02:33:11.272Z,105.60
2017-12-23T02:35:39.478Z,106.10
2017-12-23T02:38:07.555Z,106.20
2017-12-23T02:40:35.695Z,101.70
2017-12-23T02:43:03.710Z,106.23
2017-12-23T02:45:31.735Z,107.10
2017-12-23T02:47:59.879Z,105.90
2017-12-23T02:50:28.681Z,106.10
2017-12-23T02:52:57.442Z,106.53
2017-12-23T02:55:25.623Z,105.00
2017-12-23T02:57:53.667Z,103.43
2017-12-23T03:00:21.682Z,104.10
2017-12-23T03:02:50.562Z,102.93
2017-12-23T03:05:18.602Z,105.33
2017-12-23T03:07:46.639Z,102.70
2017-12-23T03:10:14.782Z,107.70
2017-12-23T03:12:42.794Z,104.90
2017-12-23T03:15:11.034Z,101.17
2017-12-23T03:17:39.189Z,100.27
2017-12-23T03:20:07.248Z,101.70
2017-12-23T03:22:35.300Z,103.70
2017-12-23T03:25:03.451Z,99.80
2017-12-23T03:27:32.218Z,104.07
2017-12-23T03:30:01.015Z,98.13
2017-12-23T03:32:29.894Z,97.20
2017-12-23T03:34:57.947Z,105.00
2017-12-23T03:37:26.104Z,102.73
2017-12-23T03:39:54.262Z,105.80
2017-12-23T03:42:22.311Z,102.77
2017-12-23T03:44:51.081Z,99.10
2017-12-23T03:47:20.000Z,103.07
2017-12-23T03:49:48.052Z,107.30
2017-12-23T03:52:16.844Z,108.80
2017-12-23T03:54:45.767Z,110.77
2017-12-23T03:57:13.794Z,116.47
2017-12-23T03:59:41.806Z,121.90
2017-12-23T04:02:09.976Z,118.87
2017-12-23T04:04:38.007Z,124.07
2017-12-23T04:07:06.059Z,121.20
2017-12-23T04:09:34.209Z,126.03
2017-12-23T04:12:02.270Z,127.33
2017-12-23T04:14:30.335Z,141.90
2017-12-23T04:16:58.546Z,132.60
2017-12-23T04:19:26.607Z,132.60
2017-12-23T04:21:54.626Z,142.83
2017-12-23T04:24:23.532Z,127.80
2017-12-23T04:26:52.332Z,129.93
2017-12-23T04:29:20.375Z,129.57
2017-12-23T04:31:49.298Z,118.83
2017-12-23T04:34:17.322Z,117.57
2017-12-23T04:36:45.452Z,136.57
2017-12-23T04:39:13.715Z,127.77
2017-12-23T04:41:41.775Z,121.50
2017-12-23T04:44:10.531Z,134.07
2017-12-23T04:46:38.791Z,132.50
2017-12-23T04:49:06.848Z,137.47
2017-12-23T04:51:34.919Z,133.20
2017-12-23T04:54:03.065Z,128.67
2017-12-23T04:56:31.915Z,126.10
2017-12-23T04:58:59.991Z,125.93
2017-12-23T05:01:28.151Z,144.07
2017-12-23T05:03:56.223Z,150.30
2017-12-23T05:06:24.306Z,149.00
2017-12-23T05:08:52.503Z,146.40
2017-12-23T05:11:21.271Z,145.93
2017-12-23T05:13:49.519Z,145.33
2017-12-23T05:16:17.747Z,135.87
2017-12-23T05:18:46.561Z,140.40
2017-12-23T05:21:14.579Z,137.50
2017-12-23T05:23:43.788Z,145.97
2017-12-23T05:26:12.671Z,135.43
2017-12-23T05:28:40.815Z,128.97
2017-12-23T05:31:08.954Z,133.67
2017-12-23T05:33:37.089Z,127.07
2017-12-23T05:36:05.655Z,120.90
2017-12-23T05:38:33.871Z,124.10
2017-12-23T05:41:02.071Z,118.50
2017-12-23T05:43:35.096Z,124.63
2017-12-23T05:46:04.060Z,112.17
2017-12-23T05:48:32.118Z,115.93
2017-12-23T05:51:00.885Z,117.47
2017-12-23T05:53:29.096Z,112.00
2017-12-23T05:55:57.311Z,114.37
2017-12-23T05:58:25.387Z,114.27
2017-12-23T06:00:54.118Z,112.37
2017-12-23T06:03:22.973Z,107.70
2017-12-23T06:05:51.015Z,112.80
2017-12-23T06:08:19.195Z,107.87
2017-12-23T06:10:51.610Z,113.33
2017-12-23T06:13:20.276Z,111.83
2017-12-23T06:15:49.035Z,116.60
2017-12-23T06:18:17.099Z,121.33
2017-12-23T06:20:45.795Z,109.77
2017-12-23T06:23:14.777Z,115.77
2017-12-23T06:25:42.877Z,119.67
2017-12-23T06:28:11.064Z,111.40
2017-12-23T06:30:39.115Z,114.57
2017-12-23T06:33:07.139Z,118.20
2017-12-23T06:35:35.463Z,116.43
2017-12-23T06:38:03.517Z,116.97
2017-12-23T06:40:32.302Z,112.17
2017-12-23T06:43:01.790Z,112.97
2017-12-23T06:45:34.958Z,113.13
2017-12-23T06:48:03.284Z,114.17
2017-12-23T06:50:32.053Z,112.20
2017-12-23T06:53:00.844Z,114.80
2017-12-23T06:55:29.770Z,109.97
2017-12-23T06:58:07.553Z,109.70
2017-12-23T07:49:46.103Z,82.53
2017-12-23T07:52:14.888Z,78.60
2017-12-23T07:54:43.639Z,79.73
2017-12-23T07:57:11.802Z,60.47
2017-12-23T07:59:39.834Z,61.23
2017-12-23T08:02:07.855Z,65.20
2017-12-23T08:04:35.982Z,77.53
2017-12-23T08:07:04.007Z,76.47
2017-12-23T08:09:32.035Z,65.40
2017-12-23T08:12:00.173Z,60.17
2017-12-23T08:14:28.926Z,61.23
2017-12-23T08:16:56.936Z,57.07
2017-12-23T08:19:25.859Z,52.87
2017-12-23T08:21:54.001Z,50.57
2017-12-23T08:24:22.836Z,49.47
2017-12-23T08:26:51.026Z,52.23
2017-12-23T08:29:19.075Z,46.67
2017-12-23T08:31:47.095Z,49.50
2017-12-23T08:34:15.261Z,50.83
2017-12-23T08:36:43.452Z,50.37
2017-12-23T08:39:11.481Z,52.87
2017-12-23T08:41:39.636Z,52.90
2017-12-23T08:44:07.667Z,50.50
2017-12-23T08:46:35.823Z,50.97
2017-12-23T08:49:03.958Z,46.30
2017-12-23T08:51:33.049Z,47.57
2017-12-23T08:54:01.092Z,45.87
2017-12-23T08:56:29.339Z,45.00
2017-12-23T08:58:57.350Z,47.73
2017-12-23T09:01:26.144Z,47.40
2017-12-23T09:03:55.034Z,51.23
2017-12-23T09:06:23.858Z,50.90
2017-12-23T09:08:51.927Z,48.00
2017-12-23T09:11:20.075Z,50.90
2017-12-23T09:13:48.887Z,43.77
2017-12-23T09:16:16.967Z,46.63
2017-12-23T09:18:45.151Z,46.00
2017-12-23T09:21:13.175Z,45.60
2017-12-23T09:23:41.186Z,49.63
2017-12-23T09:26:09.417Z,43.43
2017-12-23T09:28:39.925Z,43.30
2017-12-23T09:31:08.344Z,40.67
2017-12-23T09:33:37.772Z,40.67
2017-12-23T09:36:05.863Z,44.30
2017-12-23T09:38:33.911Z,45.60
2017-12-23T09:41:02.795Z,46.30
2017-12-23T09:43:31.550Z,48.20
2017-12-23T09:45:59.579Z,47.83
2017-12-23T09:48:27.756Z,46.83
2017-12-23T09:50:55.768Z,51.90
2017-12-23T09:53:24.390Z,47.90
2017-12-23T09:55:53.359Z,49.63
2017-12-23T09:58:21.478Z,49.50
2017-12-23T10:00:49.576Z,49.33
2017-12-23T10:03:17.727Z,48.43
2017-12-23T10:05:47.094Z,48.30
2017-12-23T10:08:16.893Z,46.83
2017-12-23T10:10:45.188Z,43.60
2017-12-23T10:13:14.034Z,44.93
2017-12-23T10:15:42.046Z,48.07
2017-12-23T10:18:10.216Z,47.63
2017-12-23T10:20:38.235Z,44.10
2017-12-23T10:23:06.264Z,45.90
2017-12-23T10:25:34.463Z,44.00
2017-12-23T10:28:03.256Z,49.13
2017-12-23T10:30:31.282Z,47.00
2017-12-23T10:32:59.418Z,47.97
2017-12-23T10:35:29.762Z,50.83
2017-12-23T10:38:00.708Z,47.60
2017-12-23T10:40:28.826Z,48.97
2017-12-23T10:42:57.578Z,48.70
2017-12-23T10:45:25.627Z,53.70
2017-12-23T10:47:53.795Z,52.93
2017-12-23T10:50:21.847Z,57.27
2017-12-23T10:52:50.726Z,57.30
2017-12-23T10:55:19.675Z,54.80
2017-12-23T10:57:47.728Z,58.37
2017-12-23T11:00:15.870Z,57.07
2017-12-23T11:02:44.647Z,54.50
2017-12-23T11:05:12.807Z,56.30
2017-12-23T11:07:40.958Z,59.07
2017-12-23T11:10:09.017Z,60.60
2017-12-23T11:12:37.178Z,59.90
2017-12-23T11:15:05.315Z,60.17
2017-12-23T11:17:34.148Z,62.20
2017-12-23T11:20:02.228Z,61.63
2017-12-23T11:22:30.379Z,63.57
2017-12-23T11:24:59.259Z,59.80
2017-12-23T11:27:28.083Z,57.37
2017-12-23T11:29:56.235Z,61.60
2017-12-23T11:32:24.998Z,62.83
2017-12-23T11:34:53.015Z,63.77
2017-12-23T11:37:21.148Z,67.53
2017-12-23T11:39:49.898Z,60.20
2017-12-23T11:42:17.930Z,63.03
2017-12-23T11:44:46.851Z,63.70
2017-12-23T11:47:14.914Z,61.10
2017-12-23T11:49:42.935Z,67.47
2017-12-23T11:52:11.111Z,68.97
2017-12-23T11:54:39.164Z,65.43
2017-12-23T11:57:07.383Z,70.80
2017-12-23T11:59:36.275Z,65.33
2017-12-23T12:02:05.072Z,71.10
2017-12-23T12:04:33.877Z,68.93
2017-12-23T12:07:02.084Z,67.33
2017-12-23T12:09:30.098Z,69.50
2017-12-23T12:11:58.892Z,71.33
2017-12-23T12:14:27.771Z,67.10
2017-12-23T12:16:56.564Z,71.73
2017-12-23T12:19:25.330Z,67.33
2017-12-23T12:21:53.491Z,73.20
2017-12-23T12:24:21.506Z,72.83
2017-12-23T12:26:50.267Z,74.00
2017-12-23T12:29:19.607Z,71.50
2017-12-23T12:31:49.305Z,73.90
2017-12-23T12:34:18.094Z,79.47
2017-12-23T12:36:47.099Z,74.97
2017-12-23T12:39:15.855Z,73.47
2017-12-23T12:41:43.892Z,80.10
2017-12-23T12:44:12.116Z,82.07
2017-12-23T12:46:40.268Z,76.50
2017-12-23T12:49:08.307Z,82.30
2017-12-23T12:51:36.469Z,78.27
2017-12-23T12:54:04.612Z,71.83
2017-12-23T12:56:32.734Z,76.50
2017-12-23T12:59:01.048Z,75.23
2017-12-23T13:01:29.059Z,75.67
2017-12-23T13:03:57.830Z,80.13
2017-12-23T13:06:26.066Z,78.07
2017-12-23T13:08:54.103Z,78.97
2017-12-23T13:11:22.130Z,78.93
2017-12-23T13:13:50.297Z,82.07
2017-12-23T13:16:18.342Z,79.07
2017-12-23T13:18:46.350Z,82.80
2017-12-23T13:21:14.492Z,83.67
2017-12-23T13:23:42.521Z,81.27
2017-12-23T13:26:11.347Z,82.67
2017-12-23T13:28:39.510Z,88.43
2017-12-23T13:31:07.572Z,89.93
2017-12-23T13:33:36.322Z,86.03
2017-12-23T13:36:04.731Z,92.50
2017-12-23T13:38:33.520Z,93.63
2017-12-23T13:41:02.283Z,96.70
2017-12-23T13:43:30.435Z,103.27
2017-12-23T13:45:58.528Z,94.10
2017-12-23T13:48:26.556Z,93.13
2017-12-23T13:50:54.724Z,94.70
2017-12-23T13:53:22.727Z,99.23
2017-12-23T13:55:50.968Z,98.27
2017-12-23T13:58:19.849Z,100.27
2017-12-23T14:00:48.782Z,102.20
2017-12-23T14:03:16.810Z,103.27
2017-12-23T14:05:45.707Z,107.27
2017-12-23T14:08:14.519Z,101.87
2017-12-23T14:10:42.609Z,104.83
2017-12-23T14:13:10.759Z,104.63
2017-12-23T14:15:38.843Z,99.03
2017-12-23T14:18:06.915Z,104.80
2017-12-23T14:20:35.051Z,101.77
2017-12-23T14:23:03.062Z,107.17
2017-12-23T14:25:31.078Z,104.27
2017-12-23T14:27:59.223Z,105.40
2017-12-23T14:30:27.243Z,111.37
2017-12-23T14:32:56.011Z,108.33
2017-12-23T14:35:24.201Z,104.23
2017-12-23T14:37:52.247Z,106.20
2017-12-23T14:40:20.262Z,102.07
2017-12-23T14:42:49.171Z,111.47
2017-12-23T14:45:17.212Z,106.57
2017-12-23T14:47:45.277Z,106.97
2017-12-23T14:50:13.444Z,105.70
2017-12-23T14:52:41.523Z,120.17
2017-12-23T14:55:09.539Z,118.77
2017-12-23T14:57:37.692Z,112.60
2017-12-23T15:00:06.455Z,107.03
2017-12-23T15:02:34.603Z,113.80
2017-12-23T15:05:02.774Z,112.30
2017-12-23T15:07:30.863Z,115.53
2017-12-23T15:09:58.904Z,115.80
2017-12-23T15:12:27.116Z,113.83
2017-12-23T15:14:55.130Z,107.13
2017-12-23T15:17:23.883Z,115.10
2017-12-23T15:19:52.035Z,104.53
2017-12-23T15:22:20.100Z,105.10
2017-12-23T15:24:48.183Z,107.53
2017-12-23T15:27:16.315Z,105.30
2017-12-23T15:29:45.113Z,113.83
2017-12-23T15:32:13.123Z,111.50
2017-12-23T15:34:41.306Z,116.70
2017-12-23T15:37:09.355Z,114.37
2017-12-23T15:39:37.407Z,112.40
2017-12-23T15:42:05.535Z,113.00
2017-12-23T15:44:33.562Z,120.27
2017-12-23T15:47:01.615Z,117.50
2017-12-23T15:49:30.494Z,121.17
2017-12-23T15:51:59.293Z,120.40
2017-12-23T15:54:28.063Z,128.73
2017-12-23T15:56:57.051Z,121.90
2017-12-23T15:59:25.104Z,120.73
2017-12-23T16:01:53.147Z,121.40
2017-12-23T16:04:21.500Z,121.90
2017-12-23T16:06:50.480Z,125.50
2017-12-23T16:09:19.301Z,125.73
2017-12-23T16:11:47.450Z,125.27
2017-12-23T16:14:16.224Z,132.37
2017-12-23T16:16:44.359Z,127.37
2017-12-23T16:19:12.491Z,125.77
2017-12-23T16:21:41.301Z,126.77
2017-12-23T16:24:09.327Z,130.87
2017-12-23T16:26:37.629Z,127.90
2017-12-23T16:29:06.432Z,126.37
2017-12-23T16:31:35.206Z,128.13
2017-12-23T16:34:04.099Z,125.10
2017-12-23T16:36:32.939Z,127.63
2017-12-23T16:39:00.998Z,125.00
2017-12-23T16:41:29.174Z,124.50
2017-12-23T16:43:57.828Z,119.20
2017-12-23T16:46:28.082Z,123.67
2017-12-23T16:48:56.242Z,115.33
2017-12-23T16:51:24.330Z,120.37
2017-12-23T16:53:52.392Z,117.33
2017-12-23T16:56:20.639Z,122.13
2017-12-23T16:58:48.699Z,123.47
2017-12-23T17:01:16.729Z,120.53
2017-12-23T17:03:44.933Z,125.70
2017-12-23T17:06:13.244Z,123.00
2017-12-23T17:08:42.112Z,126.87
2017-12-23T17:11:10.452Z,115.33
2017-12-23T17:13:38.458Z,118.70
2017-12-23T17:16:06.702Z,114.77
2017-12-23T17:18:35.019Z,118.73
2017-12-23T17:21:03.243Z,115.10
2017-12-23T17:23:31.307Z,112.93
2017-12-23T17:26:00.276Z,114.37
2017-12-23T17:28:39.795Z,112.70
2017-12-23T17:31:07.980Z,114.43
2017-12-23T17:33:36.276Z,118.27
2017-12-23T17:36:04.598Z,114.63
2017-12-23T17:38:32.780Z,114.40
2017-12-23T17:41:00.869Z,113.13
2017-12-23T17:43:28.891Z,113.80
2017-12-23T17:45:57.827Z,122.13
2017-12-23T17:48:25.983Z,125.90
2017-12-23T17:50:54.083Z,122.93
2017-12-23T17:53:22.222Z,121.47
2017-12-23T17:55:50.355Z,128.13
2017-12-23T17:58:18.412Z,124.20
2017-12-23T18:00:46.708Z,121.40
2017-12-23T18:03:14.760Z,124.87
2017-12-23T18:05:42.809Z,131.37
2017-12-23T18:08:11.136Z,123.87
2017-12-23T18:10:39.180Z,123.60
2017-12-23T18:13:07.237Z,117.37
2017-12-23T18:15:35.484Z,115.77
2017-12-23T18:18:04.267Z,116.70
2017-12-23T18:20:33.072Z,115.20
2017-12-23T18:23:01.206Z,115.97
2017-12-23T18:25:29.256Z,113.90
2017-12-23T18:27:57.343Z,112.33
2017-12-23T18:30:25.544Z,114.33
2017-12-23T18:32:54.340Z,108.17
2017-12-23T18:35:23.167Z,110.03
2017-12-23T18:37:51.314Z,113.57
2017-12-23T18:40:20.115Z,104.30
2017-12-23T18:42:48.135Z,108.77
2017-12-23T18:45:16.280Z,109.43
2017-12-23T18:47:44.348Z,110.60
2017-12-23T18:50:12.384Z,108.70
2017-12-23T18:52:41.344Z,106.23
2017-12-23T18:55:09.383Z,110.00
2017-12-23T18:57:37.444Z,103.20
2017-12-23T19:00:05.632Z,105.10
2017-12-23T19:02:33.642Z,105.03
2017-12-23T19:05:01.700Z,105.93
2017-12-23T19:07:29.843Z,107.87
2017-12-23T19:09:58.028Z,102.60
2017-12-23T19:12:26.043Z,102.80
2017-12-23T19:14:54.187Z,102.37
2017-12-23T19:17:22.239Z,101.03
2017-12-23T19:19:50.300Z,98.53
2017-12-23T19:22:18.434Z,95.83
2017-12-23T19:24:46.451Z,97.30
2017-12-23T19:27:14.519Z,98.50
2017-12-23T19:29:42.682Z,95.87
2017-12-23T19:32:11.483Z,96.13
2017-12-23T19:34:39.536Z,95.67
2017-12-23T19:37:08.419Z,95.97
2017-12-23T19:39:36.442Z,90.20
2017-12-23T19:42:04.483Z,90.13
2017-12-23T19:44:33.376Z,86.10
2017-12-23T19:47:02.147Z,83.80
2017-12-23T19:49:30.158Z,86.50
2017-12-23T19:51:58.294Z,81.37
2017-12-23T19:54:27.091Z,79.37
2017-12-23T19:56:55.910Z,78.90
2017-12-23T19:59:24.091Z,77.40
2017-12-23T20:01:52.152Z,75.97
2017-12-23T20:04:20.170Z,75.60
2017-12-23T20:06:48.379Z,71.40
2017-12-23T20:09:17.142Z,74.60
2017-12-23T20:11:45.294Z,76.37
2017-12-23T20:14:13.468Z,74.33
2017-12-23T20:16:41.528Z,75.20
2017-12-23T20:19:09.538Z,75.57
2017-12-23T20:21:37.736Z,74.90
2017-12-23T20:24:06.527Z,73.37
2017-12-23T20:26:35.379Z,75.57
2017-12-23T20:29:03.558Z,70.80
2017-12-23T20:31:31.627Z,75.00
2017-12-23T20:33:59.644Z,71.10
2017-12-23T20:36:28.612Z,68.93
2017-12-23T20:38:56.668Z,69.47
2017-12-23T20:41:24.679Z,72.27
2017-12-23T20:43:53.574Z,68.20
2017-12-23T20:46:22.390Z,74.47
2017-12-23T20:48:50.410Z,70.67
2017-12-23T20:51:18.591Z,69.50
2017-12-23T20:53:46.613Z,65.67
2017-12-23T20:56:14.724Z,67.40
2017-12-23T20:58:42.867Z,62.73
2017-12-23T21:01:10.916Z,61.30
2017-12-23T21:03:38.951Z,59.77
2017-12-23T21:06:07.098Z,58.40
2017-12-23T21:08:35.115Z,61.80
2017-12-23T21:11:03.870Z,64.13
2017-12-23T21:13:32.167Z,59.70
2017-12-23T21:16:00.218Z,60.97
2017-12-23T21:18:28.222Z,61.27
2017-12-23T21:20:57.103Z,64.90
2017-12-23T21:23:25.111Z,64.87
2017-12-23T21:25:53.291Z,61.77
2017-12-23T21:28:21.473Z,59.87
2017-12-23T21:30:49.520Z,58.60
2017-12-23T21:33:18.283Z,59.60
2017-12-23T21:35:46.452Z,57.27
2017-12-23T21:38:14.489Z,62.40
2017-12-23T21:40:42.552Z,62.73
2017-12-23T21:43:10.719Z,60.30
2017-12-23T21:45:38.803Z,62.23
2017-12-23T21:48:06.822Z,56.93
2017-12-23T21:50:34.973Z,60.40
2017-12-23T21:53:02.997Z,59.57
2017-12-23T21:55:31.835Z,62.40
2017-12-23T21:58:00.012Z,63.07
2017-12-23T22:00:28.131Z,59.80
2017-12-23T22:02:56.920Z,61.47
2017-12-23T22:05:25.822Z,60.40
2017-12-23T22:07:53.855Z,60.60
2017-12-23T22:10:21.907Z,62.43
2017-12-23T22:12:50.055Z,64.57
2017-12-23T22:15:18.198Z,66.67
2017-12-23T22:17:46.996Z,69.60
2017-12-23T22:20:15.919Z,66.80
2017-12-23T22:22:43.955Z,69.70
2017-12-23T22:25:12.714Z,67.17
2017-12-23T22:27:40.880Z,61.50
2017-12-23T22:30:08.930Z,62.27
2017-12-23T22:32:36.942Z,59.07
2017-12-23T22:35:05.111Z,58.10
2017-12-23T22:37:33.142Z,59.90
2017-12-23T22:40:01.174Z,57.30
2017-12-23T22:42:35.181Z,59.73
2017-12-23T22:45:04.083Z,58.70
2017-12-23T22:47:32.846Z,54.93
2017-12-23T22:50:00.977Z,59.13
2017-12-23T22:52:28.994Z,61.97
2017-12-23T22:54:57.167Z,58.40
2017-12-23T22:57:25.335Z,59.83
2017-12-23T22:59:53.354Z,57.40
2017-12-23T23:02:22.114Z,58.93
2017-12-23T23:04:50.279Z,60.80
2017-12-23T23:07:18.287Z,52.77
2017-12-23T23:09:47.084Z,54.73
2017-12-23T23:12:15.263Z,58.33
2017-12-23T23:14:43.323Z,52.00
2017-12-23T23:17:12.235Z,50.13
2017-12-23T23:19:40.375Z,48.30
2017-12-23T23:22:08.407Z,51.73
2017-12-23T23:24:36.456Z,50.63
2017-12-23T23:27:04.635Z,52.53
2017-12-23T23:29:32.658Z,51.70
2017-12-23T23:32:00.675Z,48.03
2017-12-23T23:34:28.822Z,45.97
2017-12-23T23:36:57.593Z,53.57
2017-12-23T23:39:25.614Z,52.07
2017-12-23T23:41:53.844Z,56.43
2017-12-23T23:44:21.887Z,50.90
2017-12-23T23:46:49.940Z,54.00
